sensor_id;sensor_type;location;lat;lon;timestamp;temperature;humidity
53599;DHT22;39485;45.702;11.364;2023-02-17T00:01:44;4.80;99.90
53599;DHT22;39485;45.702;11.364;2023-02-17T00:04:14;4.80;99.90
53599;DHT22;39485;45.702;11.364;2023-02-17T00:06:42;4.70;99.90
53599;DHT22;39485;45.702;11.364;2023-02-17T00:09:08;4.70;99.90
53599;DHT22;39485;45.702;11.364;2023-02-17T00:11:34;4.70;99.90
53599;DHT22;39485;45.702;11.364;2023-02-17T00:14:01;4.70;99.90
53599;DHT22;39485;45.702;11.364;2023-02-17T00:16:32;4.70;99.90
53599;DHT22;39485;45.702;11.364;2023-02-17T00:19:05;4.70;99.90
53599;DHT22;39485;45.702;11.364;2023-02-17T00:21:56;4.70;99.90
53599;DHT22;39485;45.702;11.364;2023-02-17T00:24:32;4.60;99.90
53599;DHT22;39485;45.702;11.364;2023-02-17T00:27:08;4.60;99.90
53599;DHT22;39485;45.702;11.364;2023-02-17T00:29:43;4.60;99.90
53599;DHT22;39485;45.702;11.364;2023-02-17T00:35:38;4.60;99.90
53599;DHT22;39485;45.702;11.364;2023-02-17T00:38:08;4.60;99.90
53599;DHT22;39485;45.702;11.364;2023-02-17T00:40:34;4.60;99.90
53599;DHT22;39485;45.702;11.364;2023-02-17T00:43:03;4.60;99.90
53599;DHT22;39485;45.702;11.364;2023-02-17T00:45:32;4.60;99.90
53599;DHT22;39485;45.702;11.364;2023-02-17T00:47:58;4.50;99.90
53599;DHT22;39485;45.702;11.364;2023-02-17T00:50:27;4.50;99.90
53599;DHT22;39485;45.702;11.364;2023-02-17T00:52:53;4.50;99.90
53599;DHT22;39485;45.702;11.364;2023-02-17T00:55:44;4.50;99.90
53599;DHT22;39485;45.702;11.364;2023-02-17T00:58:23;4.50;99.90
53599;DHT22;39485;45.702;11.364;2023-02-17T01:04:28;4.40;99.90
53599;DHT22;39485;45.702;11.364;2023-02-17T01:07:25;4.40;99.90
53599;DHT22;39485;45.702;11.364;2023-02-17T01:10:03;4.40;99.90
53599;DHT22;39485;45.702;11.364;2023-02-17T01:12:49;4.40;99.90
53599;DHT22;39485;45.702;11.364;2023-02-17T01:15:23;4.30;99.90
53599;DHT22;39485;45.702;11.364;2023-02-17T01:17:53;4.30;99.90
53599;DHT22;39485;45.702;11.364;2023-02-17T01:20:41;4.30;99.90
53599;DHT22;39485;45.702;11.364;2023-02-17T01:23:15;4.30;99.90
53599;DHT22;39485;45.702;11.364;2023-02-17T01:25:44;4.30;99.90
53599;DHT22;39485;45.702;11.364;2023-02-17T01:28:20;4.30;99.90
53599;DHT22;39485;45.702;11.364;2023-02-17T01:30:49;4.30;99.90
53599;DHT22;39485;45.702;11.364;2023-02-17T01:33:20;4.30;99.90
53599;DHT22;39485;45.702;11.364;2023-02-17T01:35:57;4.20;99.90
53599;DHT22;39485;45.702;11.364;2023-02-17T01:38:52;4.20;99.90
53599;DHT22;39485;45.702;11.364;2023-02-17T01:41:32;4.20;99.90
53599;DHT22;39485;45.702;11.364;2023-02-17T01:44:14;4.20;99.90
53599;DHT22;39485;45.702;11.364;2023-02-17T01:47:17;4.20;99.90
53599;DHT22;39485;45.702;11.364;2023-02-17T01:53:52;4.20;99.90
53599;DHT22;39485;45.702;11.364;2023-02-17T01:56:38;4.20;99.90
53599;DHT22;39485;45.702;11.364;2023-02-17T01:59:37;4.10;99.90
53599;DHT22;39485;45.702;11.364;2023-02-17T02:02:21;4.10;99.90
53599;DHT22;39485;45.702;11.364;2023-02-17T02:08:24;4.10;99.90
53599;DHT22;39485;45.702;11.364;2023-02-17T02:11:10;4.10;99.90
53599;DHT22;39485;45.702;11.364;2023-02-17T02:26:01;4.00;99.90
53599;DHT22;39485;45.702;11.364;2023-02-17T02:29:02;4.00;99.90
53599;DHT22;39485;45.702;11.364;2023-02-17T02:34:37;4.00;99.90
53599;DHT22;39485;45.702;11.364;2023-02-17T02:37:23;4.00;99.90
53599;DHT22;39485;45.702;11.364;2023-02-17T02:40:05;4.00;99.90
53599;DHT22;39485;45.702;11.364;2023-02-17T02:42:38;4.00;99.90
53599;DHT22;39485;45.702;11.364;2023-02-17T02:45:15;4.00;99.90
53599;DHT22;39485;45.702;11.364;2023-02-17T02:47:47;4.00;99.90
53599;DHT22;39485;45.702;11.364;2023-02-17T02:50:53;4.00;99.90
53599;DHT22;39485;45.702;11.364;2023-02-17T03:02:47;4.00;99.90
53599;DHT22;39485;45.702;11.364;2023-02-17T03:08:16;3.90;99.90
53599;DHT22;39485;45.702;11.364;2023-02-17T03:11:05;3.90;99.90
53599;DHT22;39485;45.702;11.364;2023-02-17T03:17:42;3.90;99.90
53599;DHT22;39485;45.702;11.364;2023-02-17T03:21:22;3.80;99.90
53599;DHT22;39485;45.702;11.364;2023-02-17T03:28:05;3.80;99.90
53599;DHT22;39485;45.702;11.364;2023-02-17T03:31:03;3.80;99.90
53599;DHT22;39485;45.702;11.364;2023-02-17T03:34:28;3.80;99.90
53599;DHT22;39485;45.702;11.364;2023-02-17T03:40:28;3.70;99.90
53599;DHT22;39485;45.702;11.364;2023-02-17T03:43:03;3.70;99.90
53599;DHT22;39485;45.702;11.364;2023-02-17T03:45:31;3.70;99.90
53599;DHT22;39485;45.702;11.364;2023-02-17T03:48:14;3.70;99.90
53599;DHT22;39485;45.702;11.364;2023-02-17T03:50:49;3.70;99.90
53599;DHT22;39485;45.702;11.364;2023-02-17T03:53:24;3.70;99.90
53599;DHT22;39485;45.702;11.364;2023-02-17T03:56:14;3.70;99.90
53599;DHT22;39485;45.702;11.364;2023-02-17T03:59:06;3.70;99.90
53599;DHT22;39485;45.702;11.364;2023-02-17T04:01:54;3.70;99.90
53599;DHT22;39485;45.702;11.364;2023-02-17T04:04:25;3.70;99.90
53599;DHT22;39485;45.702;11.364;2023-02-17T04:06:56;3.80;99.90
53599;DHT22;39485;45.702;11.364;2023-02-17T04:09:40;3.80;99.90
53599;DHT22;39485;45.702;11.364;2023-02-17T04:12:32;3.80;99.90
53599;DHT22;39485;45.702;11.364;2023-02-17T04:15:21;3.70;99.90
53599;DHT22;39485;45.702;11.364;2023-02-17T04:18:01;3.70;99.90
53599;DHT22;39485;45.702;11.364;2023-02-17T04:20:52;3.70;99.90
53599;DHT22;39485;45.702;11.364;2023-02-17T04:23:50;3.70;99.90
53599;DHT22;39485;45.702;11.364;2023-02-17T04:26:53;3.70;99.90
53599;DHT22;39485;45.702;11.364;2023-02-17T04:29:56;3.70;99.90
53599;DHT22;39485;45.702;11.364;2023-02-17T04:32:51;3.70;99.90
53599;DHT22;39485;45.702;11.364;2023-02-17T04:36:12;3.60;99.90
53599;DHT22;39485;45.702;11.364;2023-02-17T04:39:14;3.60;99.90
53599;DHT22;39485;45.702;11.364;2023-02-17T04:41:56;3.60;99.90
53599;DHT22;39485;45.702;11.364;2023-02-17T04:44:40;3.60;99.90
53599;DHT22;39485;45.702;11.364;2023-02-17T04:47:32;3.60;99.90
53599;DHT22;39485;45.702;11.364;2023-02-17T04:50:00;3.60;99.90
53599;DHT22;39485;45.702;11.364;2023-02-17T04:55:28;3.50;99.90
53599;DHT22;39485;45.702;11.364;2023-02-17T04:58:00;3.50;99.90
53599;DHT22;39485;45.702;11.364;2023-02-17T05:00:31;3.60;99.90
53599;DHT22;39485;45.702;11.364;2023-02-17T05:03:05;3.60;99.90
53599;DHT22;39485;45.702;11.364;2023-02-17T05:05:51;3.60;99.90
53599;DHT22;39485;45.702;11.364;2023-02-17T05:19:06;3.50;99.90
53599;DHT22;39485;45.702;11.364;2023-02-17T05:21:38;3.50;99.90
53599;DHT22;39485;45.702;11.364;2023-02-17T05:24:11;3.50;99.90
53599;DHT22;39485;45.702;11.364;2023-02-17T05:26:37;3.50;99.90
53599;DHT22;39485;45.702;11.364;2023-02-17T05:29:09;3.50;99.90
53599;DHT22;39485;45.702;11.364;2023-02-17T05:31:48;3.50;99.90
53599;DHT22;39485;45.702;11.364;2023-02-17T05:34:30;3.50;99.90
53599;DHT22;39485;45.702;11.364;2023-02-17T05:37:11;3.50;99.90
53599;DHT22;39485;45.702;11.364;2023-02-17T05:39:39;3.50;99.90
53599;DHT22;39485;45.702;11.364;2023-02-17T05:42:08;3.60;99.90
53599;DHT22;39485;45.702;11.364;2023-02-17T05:45:30;3.50;99.90
53599;DHT22;39485;45.702;11.364;2023-02-17T06:00:12;3.50;99.90
53599;DHT22;39485;45.702;11.364;2023-02-17T06:16:33;3.50;99.90
53599;DHT22;39485;45.702;11.364;2023-02-17T06:34:15;3.50;99.90
53599;DHT22;39485;45.702;11.364;2023-02-17T06:36:47;3.50;99.90
53599;DHT22;39485;45.702;11.364;2023-02-17T06:46:17;3.50;99.90
53599;DHT22;39485;45.702;11.364;2023-02-17T08:09:25;5.80;99.90
53599;DHT22;39485;45.702;11.364;2023-02-17T08:47:10;7.80;99.90
53599;DHT22;39485;45.702;11.364;2023-02-17T08:49:35;7.90;99.90
53599;DHT22;39485;45.702;11.364;2023-02-17T08:52:01;7.90;99.90
53599;DHT22;39485;45.702;11.364;2023-02-17T08:54:27;8.00;99.90
53599;DHT22;39485;45.702;11.364;2023-02-17T08:56:53;8.00;99.90
53599;DHT22;39485;45.702;11.364;2023-02-17T08:59:19;8.20;99.90
53599;DHT22;39485;45.702;11.364;2023-02-17T09:01:44;8.20;99.90
53599;DHT22;39485;45.702;11.364;2023-02-17T09:04:12;8.30;99.90
53599;DHT22;39485;45.702;11.364;2023-02-17T09:06:42;8.30;99.90
53599;DHT22;39485;45.702;11.364;2023-02-17T09:09:10;8.40;99.90
53599;DHT22;39485;45.702;11.364;2023-02-17T09:11:37;8.40;99.90
53599;DHT22;39485;45.702;11.364;2023-02-17T09:14:05;8.40;99.90
53599;DHT22;39485;45.702;11.364;2023-02-17T09:16:31;8.50;99.90
53599;DHT22;39485;45.702;11.364;2023-02-17T09:18:56;8.60;99.90
53599;DHT22;39485;45.702;11.364;2023-02-17T09:21:22;8.60;99.90
53599;DHT22;39485;45.702;11.364;2023-02-17T09:23:48;8.70;99.90
53599;DHT22;39485;45.702;11.364;2023-02-17T09:26:16;8.80;99.90
53599;DHT22;39485;45.702;11.364;2023-02-17T09:28:42;8.90;99.90
53599;DHT22;39485;45.702;11.364;2023-02-17T09:31:10;8.90;99.90
53599;DHT22;39485;45.702;11.364;2023-02-17T09:33:36;9.00;99.90
53599;DHT22;39485;45.702;11.364;2023-02-17T09:36:02;9.00;99.90
53599;DHT22;39485;45.702;11.364;2023-02-17T09:38:28;9.10;99.90
53599;DHT22;39485;45.702;11.364;2023-02-17T09:40:53;9.20;99.90
53599;DHT22;39485;45.702;11.364;2023-02-17T09:43:25;9.20;99.90
53599;DHT22;39485;45.702;11.364;2023-02-17T09:45:57;9.30;99.90
53599;DHT22;39485;45.702;11.364;2023-02-17T09:48:28;9.30;99.90
53599;DHT22;39485;45.702;11.364;2023-02-17T09:50:59;9.30;99.90
53599;DHT22;39485;45.702;11.364;2023-02-17T09:53:51;9.40;99.90
53599;DHT22;39485;45.702;11.364;2023-02-17T09:56:23;9.40;99.90
53599;DHT22;39485;45.702;11.364;2023-02-17T09:58:52;9.50;99.90
53599;DHT22;39485;45.702;11.364;2023-02-17T10:01:25;9.60;99.90
53599;DHT22;39485;45.702;11.364;2023-02-17T10:04:12;9.60;99.90
53599;DHT22;39485;45.702;11.364;2023-02-17T10:06:45;9.70;99.90
53599;DHT22;39485;45.702;11.364;2023-02-17T10:09:20;9.80;99.90
53599;DHT22;39485;45.702;11.364;2023-02-17T10:12:08;9.90;99.90
53599;DHT22;39485;45.702;11.364;2023-02-17T10:17:14;10.00;99.90
53599;DHT22;39485;45.702;11.364;2023-02-17T10:20:21;10.00;99.90
53599;DHT22;39485;45.702;11.364;2023-02-17T10:22:54;10.10;99.90
53599;DHT22;39485;45.702;11.364;2023-02-17T10:28:15;10.20;99.90
53599;DHT22;39485;45.702;11.364;2023-02-17T10:31:17;10.30;99.90
53599;DHT22;39485;45.702;11.364;2023-02-17T10:33:41;10.30;99.90
53599;DHT22;39485;45.702;11.364;2023-02-17T10:36:36;10.40;99.90
53599;DHT22;39485;45.702;11.364;2023-02-17T10:39:14;10.50;99.90
53599;DHT22;39485;45.702;11.364;2023-02-17T10:41:42;10.50;99.90
53599;DHT22;39485;45.702;11.364;2023-02-17T10:44:17;10.60;99.90
53599;DHT22;39485;45.702;11.364;2023-02-17T10:46:44;10.60;99.90
53599;DHT22;39485;45.702;11.364;2023-02-17T10:49:28;10.70;99.90
53599;DHT22;39485;45.702;11.364;2023-02-17T10:52:00;10.70;99.90
53599;DHT22;39485;45.702;11.364;2023-02-17T10:54:36;10.80;99.90
53599;DHT22;39485;45.702;11.364;2023-02-17T10:57:06;10.80;99.90
53599;DHT22;39485;45.702;11.364;2023-02-17T10:59:38;10.80;99.90
53599;DHT22;39485;45.702;11.364;2023-02-17T11:02:17;10.90;99.90
53599;DHT22;39485;45.702;11.364;2023-02-17T11:04:46;10.90;99.90
53599;DHT22;39485;45.702;11.364;2023-02-17T11:07:14;11.00;99.90
53599;DHT22;39485;45.702;11.364;2023-02-17T11:09:46;11.00;99.90
53599;DHT22;39485;45.702;11.364;2023-02-17T11:12:25;11.10;99.90
53599;DHT22;39485;45.702;11.364;2023-02-17T11:14:53;11.10;99.90
53599;DHT22;39485;45.702;11.364;2023-02-17T11:17:33;11.20;99.90
53599;DHT22;39485;45.702;11.364;2023-02-17T11:20:03;11.20;99.90
53599;DHT22;39485;45.702;11.364;2023-02-17T11:22:38;11.30;99.90
53599;DHT22;39485;45.702;11.364;2023-02-17T11:25:30;11.30;99.90
53599;DHT22;39485;45.702;11.364;2023-02-17T11:27:59;11.40;99.90
53599;DHT22;39485;45.702;11.364;2023-02-17T11:30:27;11.40;99.90
53599;DHT22;39485;45.702;11.364;2023-02-17T11:32:53;11.40;99.90
53599;DHT22;39485;45.702;11.364;2023-02-17T11:40:35;11.50;99.90
53599;DHT22;39485;45.702;11.364;2023-02-17T11:43:02;11.50;99.90
53599;DHT22;39485;45.702;11.364;2023-02-17T11:45:35;11.50;99.90
53599;DHT22;39485;45.702;11.364;2023-02-17T11:48:49;11.40;99.90
53599;DHT22;39485;45.702;11.364;2023-02-17T11:50:59;11.40;99.90
53599;DHT22;39485;45.702;11.364;2023-02-17T11:56:34;11.40;99.90
53599;DHT22;39485;45.702;11.364;2023-02-17T11:59:12;11.50;99.90
53599;DHT22;39485;45.702;11.364;2023-02-17T12:04:28;11.50;99.90
53599;DHT22;39485;45.702;11.364;2023-02-17T12:12:30;11.60;99.90
53599;DHT22;39485;45.702;11.364;2023-02-17T12:18:22;11.70;99.90
53599;DHT22;39485;45.702;11.364;2023-02-17T12:20:56;11.80;99.90
53599;DHT22;39485;45.702;11.364;2023-02-17T12:32:25;11.80;99.90
53599;DHT22;39485;45.702;11.364;2023-02-17T12:34:35;11.80;99.90
53599;DHT22;39485;45.702;11.364;2023-02-17T12:37:05;11.80;99.90
53599;DHT22;39485;45.702;11.364;2023-02-17T12:39:42;11.90;99.90
53599;DHT22;39485;45.702;11.364;2023-02-17T12:42:32;12.00;99.90
53599;DHT22;39485;45.702;11.364;2023-02-17T12:45:09;12.00;99.90
53599;DHT22;39485;45.702;11.364;2023-02-17T12:47:46;12.00;99.90
53599;DHT22;39485;45.702;11.364;2023-02-17T12:50:37;12.00;99.90
53599;DHT22;39485;45.702;11.364;2023-02-17T12:53:38;12.10;99.90
53599;DHT22;39485;45.702;11.364;2023-02-17T12:56:16;12.10;99.90
53599;DHT22;39485;45.702;11.364;2023-02-17T12:58:44;12.20;99.90
53599;DHT22;39485;45.702;11.364;2023-02-17T13:01:13;12.20;99.90
53599;DHT22;39485;45.702;11.364;2023-02-17T13:03:41;12.30;99.90
53599;DHT22;39485;45.702;11.364;2023-02-17T13:11:07;12.50;99.90
53599;DHT22;39485;45.702;11.364;2023-02-17T13:13:35;12.40;99.90
53599;DHT22;39485;45.702;11.364;2023-02-17T13:16:09;12.40;99.90
53599;DHT22;39485;45.702;11.364;2023-02-17T13:18:36;12.40;99.90
53599;DHT22;39485;45.702;11.364;2023-02-17T13:24:13;12.30;99.90
53599;DHT22;39485;45.702;11.364;2023-02-17T13:26:42;12.30;99.90
53599;DHT22;39485;45.702;11.364;2023-02-17T13:31:59;12.20;99.90
53599;DHT22;39485;45.702;11.364;2023-02-17T13:36:55;12.10;99.90
53599;DHT22;39485;45.702;11.364;2023-02-17T13:41:54;12.10;99.90
53599;DHT22;39485;45.702;11.364;2023-02-17T13:44:25;12.10;99.90
53599;DHT22;39485;45.702;11.364;2023-02-17T13:46:52;12.00;99.90
53599;DHT22;39485;45.702;11.364;2023-02-17T13:49:23;12.00;99.90
53599;DHT22;39485;45.702;11.364;2023-02-17T13:51:49;11.90;99.90
53599;DHT22;39485;45.702;11.364;2023-02-17T13:54:19;11.90;99.90
53599;DHT22;39485;45.702;11.364;2023-02-17T13:56:52;11.90;99.90
53599;DHT22;39485;45.702;11.364;2023-02-17T13:59:24;11.90;99.90
53599;DHT22;39485;45.702;11.364;2023-02-17T14:01:50;11.90;99.90
53599;DHT22;39485;45.702;11.364;2023-02-17T14:04:24;12.00;99.90
53599;DHT22;39485;45.702;11.364;2023-02-17T14:06:51;12.00;99.90
53599;DHT22;39485;45.702;11.364;2023-02-17T14:09:25;12.10;99.90
53599;DHT22;39485;45.702;11.364;2023-02-17T14:11:52;12.10;99.90
53599;DHT22;39485;45.702;11.364;2023-02-17T14:14:20;12.10;99.90
53599;DHT22;39485;45.702;11.364;2023-02-17T14:16:57;12.20;99.90
53599;DHT22;39485;45.702;11.364;2023-02-17T14:19:23;12.20;99.90
53599;DHT22;39485;45.702;11.364;2023-02-17T14:22:03;12.20;99.90
53599;DHT22;39485;45.702;11.364;2023-02-17T14:24:36;12.30;99.90
53599;DHT22;39485;45.702;11.364;2023-02-17T14:27:06;12.30;99.90
53599;DHT22;39485;45.702;11.364;2023-02-17T14:29:43;12.40;99.90
53599;DHT22;39485;45.702;11.364;2023-02-17T14:32:33;12.40;99.90
53599;DHT22;39485;45.702;11.364;2023-02-17T14:37:37;12.30;99.90
53599;DHT22;39485;45.702;11.364;2023-02-17T14:40:06;12.30;99.90
53599;DHT22;39485;45.702;11.364;2023-02-17T14:42:38;12.30;99.90
53599;DHT22;39485;45.702;11.364;2023-02-17T14:45:04;12.20;99.90
53599;DHT22;39485;45.702;11.364;2023-02-17T14:47:30;12.20;99.90
53599;DHT22;39485;45.702;11.364;2023-02-17T14:49:55;12.10;99.90
53599;DHT22;39485;45.702;11.364;2023-02-17T14:52:23;12.00;99.90
53599;DHT22;39485;45.702;11.364;2023-02-17T14:54:49;11.90;99.90
53599;DHT22;39485;45.702;11.364;2023-02-17T14:57:16;11.80;99.90
53599;DHT22;39485;45.702;11.364;2023-02-17T14:59:42;11.70;99.90
53599;DHT22;39485;45.702;11.364;2023-02-17T15:02:19;11.70;99.90
53599;DHT22;39485;45.702;11.364;2023-02-17T15:04:45;11.60;99.90
53599;DHT22;39485;45.702;11.364;2023-02-17T15:07:13;11.60;99.90
53599;DHT22;39485;45.702;11.364;2023-02-17T15:09:39;11.60;99.90
53599;DHT22;39485;45.702;11.364;2023-02-17T15:12:18;11.50;99.90
53599;DHT22;39485;45.702;11.364;2023-02-17T15:14:44;11.50;99.90
53599;DHT22;39485;45.702;11.364;2023-02-17T15:17:11;11.40;99.90
53599;DHT22;39485;45.702;11.364;2023-02-17T15:19:37;11.40;99.90
53599;DHT22;39485;45.702;11.364;2023-02-17T15:22:04;11.30;99.90
53599;DHT22;39485;45.702;11.364;2023-02-17T15:24:34;11.20;99.90
53599;DHT22;39485;45.702;11.364;2023-02-17T15:27:01;11.20;99.90
53599;DHT22;39485;45.702;11.364;2023-02-17T15:29:28;11.20;99.90
53599;DHT22;39485;45.702;11.364;2023-02-17T15:31:55;11.10;99.90
53599;DHT22;39485;45.702;11.364;2023-02-17T15:34:24;11.10;99.90
53599;DHT22;39485;45.702;11.364;2023-02-17T15:36:50;11.00;99.90
53599;DHT22;39485;45.702;11.364;2023-02-17T15:39:18;11.00;99.90
53599;DHT22;39485;45.702;11.364;2023-02-17T15:41:45;10.90;99.90
53599;DHT22;39485;45.702;11.364;2023-02-17T15:44:22;10.90;99.90
53599;DHT22;39485;45.702;11.364;2023-02-17T15:46:51;10.80;99.90
53599;DHT22;39485;45.702;11.364;2023-02-17T15:49:17;10.80;99.90
53599;DHT22;39485;45.702;11.364;2023-02-17T15:51:43;10.70;99.90
53599;DHT22;39485;45.702;11.364;2023-02-17T15:54:08;10.60;99.90
53599;DHT22;39485;45.702;11.364;2023-02-17T15:56:58;10.60;99.90
53599;DHT22;39485;45.702;11.364;2023-02-17T15:59:25;10.50;99.90
53599;DHT22;39485;45.702;11.364;2023-02-17T16:01:52;10.40;99.90
53599;DHT22;39485;45.702;11.364;2023-02-17T16:04:21;10.30;99.90
53599;DHT22;39485;45.702;11.364;2023-02-17T16:06:47;10.30;99.90
53599;DHT22;39485;45.702;11.364;2023-02-17T16:09:13;10.20;99.90
53599;DHT22;39485;45.702;11.364;2023-02-17T16:11:47;10.10;99.90
53599;DHT22;39485;45.702;11.364;2023-02-17T16:14:22;10.00;99.90
53599;DHT22;39485;45.702;11.364;2023-02-17T16:16:48;10.00;99.90
53599;DHT22;39485;45.702;11.364;2023-02-17T16:19:14;9.90;99.90
53599;DHT22;39485;45.702;11.364;2023-02-17T16:21:40;9.80;99.90
53599;DHT22;39485;45.702;11.364;2023-02-17T16:24:05;9.70;99.90
53599;DHT22;39485;45.702;11.364;2023-02-17T16:26:33;9.70;99.90
53599;DHT22;39485;45.702;11.364;2023-02-17T16:29:02;9.60;99.90
53599;DHT22;39485;45.702;11.364;2023-02-17T16:31:27;9.60;99.90
53599;DHT22;39485;45.702;11.364;2023-02-17T16:33:56;9.40;99.90
53599;DHT22;39485;45.702;11.364;2023-02-17T16:36:25;9.40;99.90
53599;DHT22;39485;45.702;11.364;2023-02-17T16:38:50;9.30;99.90
53599;DHT22;39485;45.702;11.364;2023-02-17T16:41:18;9.20;99.90
53599;DHT22;39485;45.702;11.364;2023-02-17T16:43:44;9.20;99.90
53599;DHT22;39485;45.702;11.364;2023-02-17T16:46:23;9.10;99.90
53599;DHT22;39485;45.702;11.364;2023-02-17T16:48:51;9.00;99.90
53599;DHT22;39485;45.702;11.364;2023-02-17T16:51:17;9.00;99.90
53599;DHT22;39485;45.702;11.364;2023-02-17T16:53:42;8.90;99.90
53599;DHT22;39485;45.702;11.364;2023-02-17T16:56:15;8.80;99.90
53599;DHT22;39485;45.702;11.364;2023-02-17T16:58:42;8.80;99.90
53599;DHT22;39485;45.702;11.364;2023-02-17T17:01:10;8.70;99.90
53599;DHT22;39485;45.702;11.364;2023-02-17T17:03:40;8.70;99.90
53599;DHT22;39485;45.702;11.364;2023-02-17T17:06:19;8.60;99.90
53599;DHT22;39485;45.702;11.364;2023-02-17T17:08:46;8.60;99.90
53599;DHT22;39485;45.702;11.364;2023-02-17T17:11:17;8.50;99.90
53599;DHT22;39485;45.702;11.364;2023-02-17T17:13:44;8.40;99.90
53599;DHT22;39485;45.702;11.364;2023-02-17T17:16:18;8.40;99.90
53599;DHT22;39485;45.702;11.364;2023-02-17T17:18:44;8.30;99.90
53599;DHT22;39485;45.702;11.364;2023-02-17T17:21:11;8.30;99.90
53599;DHT22;39485;45.702;11.364;2023-02-17T17:23:38;8.20;99.90
53599;DHT22;39485;45.702;11.364;2023-02-17T17:26:23;8.20;99.90
53599;DHT22;39485;45.702;11.364;2023-02-17T17:28:51;8.10;99.90
53599;DHT22;39485;45.702;11.364;2023-02-17T17:31:17;8.10;99.90
53599;DHT22;39485;45.702;11.364;2023-02-17T17:33:44;8.00;99.90
53599;DHT22;39485;45.702;11.364;2023-02-17T17:36:29;8.00;99.90
53599;DHT22;39485;45.702;11.364;2023-02-17T17:38:55;8.00;99.90
53599;DHT22;39485;45.702;11.364;2023-02-17T17:41:23;8.00;99.90
53599;DHT22;39485;45.702;11.364;2023-02-17T17:43:49;7.90;99.90
53599;DHT22;39485;45.702;11.364;2023-02-17T17:46:28;7.90;99.90
53599;DHT22;39485;45.702;11.364;2023-02-17T17:48:57;7.90;99.90
53599;DHT22;39485;45.702;11.364;2023-02-17T17:51:27;7.90;99.90
53599;DHT22;39485;45.702;11.364;2023-02-17T17:53:54;7.90;99.90
53599;DHT22;39485;45.702;11.364;2023-02-17T17:56:23;8.00;99.90
53599;DHT22;39485;45.702;11.364;2023-02-17T17:58:50;8.00;99.90
53599;DHT22;39485;45.702;11.364;2023-02-17T18:01:16;8.00;99.90
53599;DHT22;39485;45.702;11.364;2023-02-17T18:03:44;8.00;99.90
53599;DHT22;39485;45.702;11.364;2023-02-17T18:06:54;8.00;99.90
53599;DHT22;39485;45.702;11.364;2023-02-17T18:09:03;8.00;99.90
53599;DHT22;39485;45.702;11.364;2023-02-17T18:11:30;8.00;99.90
53599;DHT22;39485;45.702;11.364;2023-02-17T18:13:59;8.00;99.90
53599;DHT22;39485;45.702;11.364;2023-02-17T18:16:27;8.00;99.90
53599;DHT22;39485;45.702;11.364;2023-02-17T18:18:54;8.00;99.90
53599;DHT22;39485;45.702;11.364;2023-02-17T18:21:20;8.00;99.90
53599;DHT22;39485;45.702;11.364;2023-02-17T18:23:46;7.90;99.90
53599;DHT22;39485;45.702;11.364;2023-02-17T18:26:13;7.90;99.90
53599;DHT22;39485;45.702;11.364;2023-02-17T18:28:39;7.90;99.90
53599;DHT22;39485;45.702;11.364;2023-02-17T18:31:08;7.90;99.90
53599;DHT22;39485;45.702;11.364;2023-02-17T18:33:34;7.90;99.90
53599;DHT22;39485;45.702;11.364;2023-02-17T18:36:11;7.90;99.90
53599;DHT22;39485;45.702;11.364;2023-02-17T18:38:37;7.90;99.90
53599;DHT22;39485;45.702;11.364;2023-02-17T18:41:04;7.90;99.90
53599;DHT22;39485;45.702;11.364;2023-02-17T18:43:29;7.90;99.90
53599;DHT22;39485;45.702;11.364;2023-02-17T18:45:55;7.90;99.90
53599;DHT22;39485;45.702;11.364;2023-02-17T18:48:21;7.90;99.90
53599;DHT22;39485;45.702;11.364;2023-02-17T18:50:47;7.90;99.90
53599;DHT22;39485;45.702;11.364;2023-02-17T18:53:13;7.90;99.90
53599;DHT22;39485;45.702;11.364;2023-02-17T18:55:40;7.90;99.90
53599;DHT22;39485;45.702;11.364;2023-02-17T18:58:05;7.90;99.90
53599;DHT22;39485;45.702;11.364;2023-02-17T19:00:31;7.90;99.90
53599;DHT22;39485;45.702;11.364;2023-02-17T19:02:57;7.90;99.90
53599;DHT22;39485;45.702;11.364;2023-02-17T19:05:26;7.90;99.90
53599;DHT22;39485;45.702;11.364;2023-02-17T19:07:53;8.00;99.90
53599;DHT22;39485;45.702;11.364;2023-02-17T19:10:19;8.00;99.90
53599;DHT22;39485;45.702;11.364;2023-02-17T19:12:45;7.90;99.90
53599;DHT22;39485;45.702;11.364;2023-02-17T19:15:10;7.90;99.90
53599;DHT22;39485;45.702;11.364;2023-02-17T19:17:38;7.90;99.90
53599;DHT22;39485;45.702;11.364;2023-02-17T19:20:05;7.90;99.90
53599;DHT22;39485;45.702;11.364;2023-02-17T19:22:34;7.90;99.90
53599;DHT22;39485;45.702;11.364;2023-02-17T19:25:00;7.90;99.90
53599;DHT22;39485;45.702;11.364;2023-02-17T19:27:27;7.90;99.90
53599;DHT22;39485;45.702;11.364;2023-02-17T19:29:53;7.90;99.90
53599;DHT22;39485;45.702;11.364;2023-02-17T19:32:19;7.90;99.90
53599;DHT22;39485;45.702;11.364;2023-02-17T19:34:44;7.90;99.90
53599;DHT22;39485;45.702;11.364;2023-02-17T19:37:10;7.90;99.90
53599;DHT22;39485;45.702;11.364;2023-02-17T19:39:36;7.90;99.90
53599;DHT22;39485;45.702;11.364;2023-02-17T19:42:02;7.80;99.90
53599;DHT22;39485;45.702;11.364;2023-02-17T19:44:29;7.90;99.90
53599;DHT22;39485;45.702;11.364;2023-02-17T19:46:55;7.80;99.90
53599;DHT22;39485;45.702;11.364;2023-02-17T19:49:21;7.80;99.90
53599;DHT22;39485;45.702;11.364;2023-02-17T19:51:47;7.90;99.90
53599;DHT22;39485;45.702;11.364;2023-02-17T19:54:14;7.90;99.90
53599;DHT22;39485;45.702;11.364;2023-02-17T19:56:40;7.90;99.90
53599;DHT22;39485;45.702;11.364;2023-02-17T19:59:06;7.80;99.90
53599;DHT22;39485;45.702;11.364;2023-02-17T20:01:32;7.80;99.90
53599;DHT22;39485;45.702;11.364;2023-02-17T20:04:00;7.90;99.90
53599;DHT22;39485;45.702;11.364;2023-02-17T20:06:32;7.80;99.90
53599;DHT22;39485;45.702;11.364;2023-02-17T20:09:02;7.80;99.90
53599;DHT22;39485;45.702;11.364;2023-02-17T20:11:29;7.80;99.90
53599;DHT22;39485;45.702;11.364;2023-02-17T20:13:57;7.80;99.90
53599;DHT22;39485;45.702;11.364;2023-02-17T20:16:23;7.80;99.90
53599;DHT22;39485;45.702;11.364;2023-02-17T20:18:49;7.80;99.90
53599;DHT22;39485;45.702;11.364;2023-02-17T20:21:18;7.80;99.90
53599;DHT22;39485;45.702;11.364;2023-02-17T20:23:46;7.80;99.90
53599;DHT22;39485;45.702;11.364;2023-02-17T20:26:18;7.80;99.90
53599;DHT22;39485;45.702;11.364;2023-02-17T20:28:44;7.80;99.90
53599;DHT22;39485;45.702;11.364;2023-02-17T20:31:11;7.80;99.90
53599;DHT22;39485;45.702;11.364;2023-02-17T20:33:37;7.80;99.90
53599;DHT22;39485;45.702;11.364;2023-02-17T20:36:04;7.80;99.90
53599;DHT22;39485;45.702;11.364;2023-02-17T20:38:30;7.90;99.90
53599;DHT22;39485;45.702;11.364;2023-02-17T20:40:57;7.80;99.90
53599;DHT22;39485;45.702;11.364;2023-02-17T20:43:23;7.90;99.90
53599;DHT22;39485;45.702;11.364;2023-02-17T20:45:49;7.90;99.90